Time;durP1;ratioP1;P1;durP2;ratioP2;P2;SDS_P1;SDS_P2;PMS_P1;PMS_P2;Temp;Humidity;BMP_temperature;BMP_pressure;BME280_temperature;BME280_humidity;BME280_pressure;Samples;Min_cycle;Max_cycle;Signal;HPM_P1;HPM_P2
2024/01/25 00:01:36;;;;;;;24.23;7.97;;;;;;;8.46;70.43;99100.25;5003389;28;20125;-73
2024/01/25 00:04:02;;;;;;;25.95;7.78;;;;;;;8.50;70.69;99106.03;4982171;28;20054;-73
2024/01/25 00:06:27;;;;;;;24.15;7.13;;;;;;;8.43;71.45;99099.84;4999439;28;20114;-72
2024/01/25 00:08:52;;;;;;;29.67;7.38;;;;;;;8.38;71.25;99087.03;4988132;28;20049;-73
2024/01/25 00:11:18;;;;;;;28.10;7.20;;;;;;;8.41;70.65;99075.06;5003865;28;20105;-73
2024/01/25 00:13:43;;;;;;;27.00;7.90;;;;;;;8.41;71.59;99086.63;4998497;28;20038;-73
2024/01/25 00:16:08;;;;;;;28.00;8.23;;;;;;;8.42;71.60;99093.66;5004175;28;20141;-73
2024/01/25 00:18:34;;;;;;;31.73;7.50;;;;;;;8.37;70.97;99076.53;4996255;28;20045;-72
2024/01/25 00:20:59;;;;;;;26.80;7.22;;;;;;;8.35;71.73;99074.06;4986683;28;20141;-72
2024/01/25 00:23:24;;;;;;;30.25;7.90;;;;;;;8.32;71.57;99067.25;4994033;28;20038;-72
2024/01/25 00:25:50;;;;;;;32.30;8.23;;;;;;;8.30;71.37;99073.84;4983752;28;20478;-72
2024/01/25 00:28:15;;;;;;;28.15;7.95;;;;;;;8.38;71.02;99083.56;5000868;28;20035;-71
2024/01/25 00:30:41;;;;;;;25.92;7.32;;;;;;;8.42;71.68;99093.66;5011227;28;20113;-71
2024/01/25 00:33:06;;;;;;;26.17;7.53;;;;;;;8.44;71.16;99096.13;5008274;28;20038;-72
2024/01/25 00:35:32;;;;;;;25.80;7.20;;;;;;;8.43;71.35;99099.84;4994954;28;20030;-72
2024/01/25 00:37:57;;;;;;;26.55;6.80;;;;;;;8.45;71.35;99097.81;5001465;28;20124;-72
2024/01/25 00:40:23;;;;;;;20.83;6.55;;;;;;;8.26;71.62;99068.06;5000384;28;20034;-74
2024/01/25 00:42:52;;;;;;;24.10;7.72;;;;;;;8.35;71.30;99082.91;4983070;28;20126;-74
2024/01/25 00:45:18;;;;;;;28.52;8.48;;;;;;;8.42;71.57;99093.66;4992315;28;20027;-74
2024/01/25 00:47:44;;;;;;;24.33;7.40;;;;;;;8.24;71.55;99075.47;4998935;28;20449;-73
2024/01/25 00:50:10;;;;;;;22.65;7.18;;;;;;;8.29;72.06;99094.50;4995097;28;20076;-75
2024/01/25 00:52:36;;;;;;;27.27;7.50;;;;;;;8.42;71.88;99100.88;4991841;28;20034;-75
2024/01/25 00:55:02;;;;;;;28.52;7.70;;;;;;;8.13;72.13;99057.34;4993927;28;20038;-74
2024/01/25 00:57:27;;;;;;;30.70;7.50;;;;;;;8.27;71.35;99085.84;5008649;28;20037;-75
2024/01/25 00:59:53;;;;;;;30.98;8.32;;;;;;;8.35;71.48;99104.38;4991282;28;20030;-75
2024/01/25 01:02:22;;;;;;;23.73;7.35;;;;;;;8.38;71.64;99097.78;5006384;28;20037;-74
2024/01/25 01:04:47;;;;;;;29.95;8.27;;;;;;;8.32;71.25;99094.09;4976069;28;20054;-74
2024/01/25 01:07:13;;;;;;;25.27;7.40;;;;;;;8.25;71.78;99071.78;4988738;28;20559;-74
2024/01/25 01:09:38;;;;;;;27.13;7.95;;;;;;;8.34;71.62;99094.69;4975955;28;20033;-74
2024/01/25 01:12:04;;;;;;;27.52;8.25;;;;;;;8.30;72.61;99085.44;5002351;28;20575;-74
2024/01/25 01:14:29;;;;;;;26.95;7.93;;;;;;;8.27;71.83;99080.47;4994422;28;20080;-74
2024/01/25 01:16:55;;;;;;;29.85;7.88;;;;;;;8.28;71.81;99097.41;4999927;28;20046;-74
2024/01/25 01:19:20;;;;;;;29.30;7.82;;;;;;;8.17;72.36;99073.81;5017030;23;20448;-70
2024/01/25 01:21:46;;;;;;;31.38;7.88;;;;;;;8.17;72.49;99089.91;5030197;28;20105;-70
2024/01/25 01:24:11;;;;;;;24.20;7.50;;;;;;;8.04;73.01;99084.56;5025536;28;20037;-71
2024/01/25 01:26:37;;;;;;;27.23;7.70;;;;;;;8.13;72.75;99088.69;5003070;28;20030;-70
2024/01/25 01:29:02;;;;;;;27.20;8.10;;;;;;;8.16;72.78;99104.38;5024788;28;20026;-70
2024/01/25 01:31:28;;;;;;;25.65;7.65;;;;;;;8.08;72.90;99070.53;5010220;28;20074;-70
2024/01/25 01:33:53;;;;;;;25.23;7.38;;;;;;;8.15;72.60;99092.81;5007219;28;20027;-70
2024/01/25 01:36:19;;;;;;;29.83;7.90;;;;;;;8.03;72.83;99077.53;5018989;28;20116;-69
2024/01/25 01:38:44;;;;;;;30.48;7.97;;;;;;;8.18;72.84;99095.09;5019596;28;20507;-70
2024/01/25 01:41:12;;;;;;;26.67;7.10;;;;;;;8.03;73.03;99077.53;5014937;28;20037;-70
2024/01/25 01:43:38;;;;;;;28.38;8.13;;;;;;;8.23;72.41;99099.84;5007917;28;20018;-71
2024/01/25 01:46:11;;;;;;;26.30;7.03;;;;;;;8.26;73.08;99102.94;5016532;28;20044;-71
2024/01/25 01:48:40;;;;;;;29.40;7.10;;;;;;;8.24;72.29;99106.84;5007301;28;20394;-71
2024/01/25 01:51:05;;;;;;;23.48;7.05;;;;;;;8.01;73.05;99093.84;5024935;28;20022;-70
2024/01/25 01:53:32;;;;;;;27.38;7.40;;;;;;;8.18;73.28;99113.88;5012533;28;20055;-70
2024/01/25 01:55:58;;;;;;;26.50;7.60;;;;;;;8.25;73.09;99125.44;4994248;28;20448;-70
2024/01/25 01:58:24;;;;;;;31.60;8.55;;;;;;;7.92;73.43;99070.94;5014539;28;20037;-72
2024/01/25 02:00:50;;;;;;;28.88;7.57;;;;;;;7.96;73.51;99077.53;5017570;28;20502;-72
2024/01/25 02:03:15;;;;;;;24.45;7.90;;;;;;;8.15;73.58;99127.69;5011682;28;20038;-72
2024/01/25 02:05:41;;;;;;;20.42;7.07;;;;;;;8.10;73.15;99135.53;5026192;28;20038;-72
2024/01/25 02:08:07;;;;;;;34.78;8.10;;;;;;;8.09;73.01;99104.38;5017514;28;20124;-72
2024/01/25 02:10:32;;;;;;;25.15;6.53;;;;;;;8.01;72.75;99107.25;5022337;28;20039;-71
2024/01/25 02:12:58;;;;;;;28.83;7.80;;;;;;;8.16;73.68;99115.94;5016124;28;20037;-70
2024/01/25 02:15:23;;;;;;;25.70;7.28;;;;;;;8.04;73.56;99106.84;5013658;28;20034;-70
2024/01/25 02:17:49;;;;;;;27.73;8.70;;;;;;;8.09;73.11;99114.28;5014087;28;20490;-70
2024/01/25 02:20:14;;;;;;;30.08;8.52;;;;;;;8.12;73.98;99114.69;5014275;28;20033;-71
2024/01/25 02:22:39;;;;;;;27.50;7.32;;;;;;;8.19;73.42;99110.16;5029935;28;20044;-70
2024/01/25 02:25:05;;;;;;;30.92;7.70;;;;;;;8.13;73.53;99120.88;5017696;28;20535;-70
2024/01/25 02:27:30;;;;;;;24.25;7.70;;;;;;;8.12;73.55;99113.88;5019716;28;20042;-70
2024/01/25 02:29:56;;;;;;;27.15;7.50;;;;;;;8.15;72.93;99108.09;5005009;28;20077;-70
2024/01/25 02:32:21;;;;;;;28.23;7.38;;;;;;;8.14;72.89;99101.91;5000413;28;20486;-70
2024/01/25 02:34:47;;;;;;;26.60;8.07;;;;;;;8.11;73.63;99102.31;5015133;28;20025;-70
2024/01/25 02:37:14;;;;;;;26.67;7.45;;;;;;;7.93;73.67;99069.94;5000166;28;20117;-70
2024/01/25 02:39:39;;;;;;;22.80;6.80;;;;;;;7.99;73.46;99077.13;5026257;28;20456;-71
2024/01/25 02:42:05;;;;;;;26.00;7.20;;;;;;;7.96;73.12;99074.84;5009915;28;20065;-72
2024/01/25 02:44:30;;;;;;;24.35;7.95;;;;;;;8.03;73.89;99075.69;5026615;28;20062;-71
2024/01/25 02:46:55;;;;;;;29.85;7.90;;;;;;;7.90;73.77;99081.06;5010143;28;20115;-71
2024/01/25 02:49:21;;;;;;;25.48;7.75;;;;;;;8.09;73.46;99109.75;5002182;28;20121;-72
2024/01/25 02:51:46;;;;;;;31.85;8.27;;;;;;;8.17;73.36;99111.38;5011668;28;20042;-71
2024/01/25 02:54:11;;;;;;;30.77;8.32;;;;;;;8.12;73.34;99103.97;5023323;28;20025;-70
2024/01/25 02:56:37;;;;;;;30.13;8.00;;;;;;;8.10;73.43;99091.78;5003310;28;20045;-71
2024/01/25 02:59:02;;;;;;;27.60;8.23;;;;;;;8.13;73.22;99099.41;5019256;28;20018;-69
2024/01/25 03:01:28;;;;;;;26.75;8.10;;;;;;;8.16;73.32;99102.53;5024315;28;20137;-71
2024/01/25 03:03:53;;;;;;;32.83;8.40;;;;;;;8.00;73.43;99088.69;5006298;28;20543;-71
2024/01/25 03:06:19;;;;;;;31.58;8.10;;;;;;;8.13;73.39;99086.84;5010571;28;20117;-70
2024/01/25 03:08:45;;;;;;;31.40;7.88;;;;;;;8.04;74.09;99088.09;5013682;28;20033;-69
2024/01/25 03:11:10;;;;;;;27.15;9.02;;;;;;;8.15;73.25;99090.13;5009790;28;20042;-70
2024/01/25 03:13:36;;;;;;;26.10;7.82;;;;;;;7.99;72.95;99087.88;5012878;28;20045;-71
2024/01/25 03:16:02;;;;;;;34.10;8.43;;;;;;;8.06;73.59;99093.22;5015758;28;20065;-71
2024/01/25 03:18:27;;;;;;;28.02;8.82;;;;;;;8.12;73.45;99114.69;5031019;28;20029;-71
2024/01/25 03:20:53;;;;;;;28.48;8.02;;;;;;;8.09;73.49;99106.25;5019030;28;20063;-70
2024/01/25 03:23:18;;;;;;;19.55;7.53;;;;;;;8.15;73.25;99119.66;5029412;28;20025;-69
2024/01/25 03:25:43;;;;;;;28.52;7.35;;;;;;;8.17;73.69;99119.44;5018395;28;20487;-70
2024/01/25 03:28:11;;;;;;;21.33;7.32;;;;;;;8.10;73.05;99114.06;5011445;28;20060;-70
2024/01/25 03:30:36;;;;;;;31.75;9.20;;;;;;;8.10;73.92;99111.38;5016780;28;20037;-70
2024/01/25 03:33:01;;;;;;;32.38;8.45;;;;;;;8.11;73.55;99109.53;5036627;28;20453;-71
2024/01/25 03:35:27;;;;;;;27.67;8.35;;;;;;;8.14;73.53;99123.38;5016547;28;20049;-70
2024/01/25 03:37:52;;;;;;;29.77;8.23;;;;;;;8.15;73.52;99124.19;5022196;28;20021;-71
2024/01/25 03:40:17;;;;;;;30.05;8.18;;;;;;;8.02;74.56;99113.47;5025998;28;20034;-72
2024/01/25 03:42:43;;;;;;;31.60;8.20;;;;;;;8.16;73.69;99121.31;5017837;28;20469;-70
2024/01/25 03:45:08;;;;;;;32.55;8.00;;;;;;;8.13;74.44;99121.72;5025165;28;20044;-69
2024/01/25 03:47:34;;;;;;;26.17;7.90;;;;;;;8.12;74.01;99120.06;5014698;28;20432;-70
2024/01/25 03:49:59;;;;;;;30.13;8.88;;;;;;;8.14;73.75;99136.78;5023940;28;20042;-68
2024/01/25 03:52:25;;;;;;;23.13;8.00;;;;;;;7.94;73.99;99111.78;4995447;28;20085;-69
2024/01/25 03:54:50;;;;;;;30.95;8.88;;;;;;;7.96;74.68;99106.25;5024721;28;20042;-71
2024/01/25 03:57:16;;;;;;;26.63;8.35;;;;;;;8.00;74.29;99116.34;5022203;28;20025;-71
2024/01/25 03:59:41;;;;;;;30.00;8.02;;;;;;;8.04;74.30;99132.84;5028949;28;20034;-69
2024/01/25 04:02:07;;;;;;;29.10;9.13;;;;;;;7.95;74.16;99113.47;5013425;28;20124;-70
2024/01/25 04:04:32;;;;;;;28.77;8.63;;;;;;;7.92;74.44;99140.69;5014578;28;20041;-70
2024/01/25 04:06:57;;;;;;;27.55;8.57;;;;;;;7.81;73.82;99108.28;5018663;28;20029;-70
2024/01/25 04:09:23;;;;;;;35.67;9.20;;;;;;;7.94;74.88;99141.28;5020075;28;20049;-71
2024/01/25 04:11:48;;;;;;;29.92;9.02;;;;;;;7.86;74.86;99141.50;5003143;28;20049;-71
2024/01/25 04:14:15;;;;;;;29.80;8.55;;;;;;;7.84;75.26;99138.19;5018322;28;20037;-70
2024/01/25 04:16:41;;;;;;;25.60;7.70;;;;;;;7.84;74.55;99148.91;5021698;28;20034;-71
2024/01/25 04:19:06;;;;;;;25.80;8.07;;;;;;;7.66;74.78;99125.38;5019975;28;20033;-70
2024/01/25 04:21:32;;;;;;;30.33;8.43;;;;;;;7.57;74.98;99120.38;5016175;28;20442;-69
2024/01/25 04:23:57;;;;;;;29.27;8.73;;;;;;;7.61;75.53;99138.53;5025352;28;20401;-67
2024/01/25 04:26:23;;;;;;;29.58;8.35;;;;;;;7.62;75.62;99144.75;5012045;28;20021;-67
2024/01/25 04:28:48;;;;;;;28.27;8.05;;;;;;;7.53;75.69;99140.59;5002624;28;20513;-67
2024/01/25 04:31:14;;;;;;;28.88;7.93;;;;;;;7.50;75.48;99130.28;5024008;28;20720;-67
2024/01/25 04:33:40;;;;;;;29.33;8.90;;;;;;;7.56;75.10;99141.00;5012907;28;20041;-68
2024/01/25 04:36:05;;;;;;;24.02;7.50;;;;;;;7.58;74.93;99167.63;5014014;28;20025;-68
2024/01/25 04:38:30;;;;;;;25.95;7.47;;;;;;;7.57;75.67;99174.00;5014604;28;20520;-68
2024/01/25 04:40:56;;;;;;;28.05;8.55;;;;;;;7.58;76.17;99181.81;5021624;28;20026;-68
2024/01/25 04:43:21;;;;;;;29.27;8.88;;;;;;;7.43;75.72;99153.53;5014558;28;20026;-68
2024/01/25 04:45:47;;;;;;;32.50;8.65;;;;;;;7.47;75.54;99187.78;5020652;28;20685;-68
2024/01/25 04:48:12;;;;;;;33.40;8.82;;;;;;;7.50;76.16;99178.50;5013994;28;20041;-67
2024/01/25 04:50:39;;;;;;;29.02;8.30;;;;;;;7.48;76.44;99191.28;5013537;28;20457;-67
2024/01/25 04:53:04;;;;;;;29.35;8.38;;;;;;;7.47;75.95;99187.78;5024320;28;20037;-67
2024/01/25 04:55:29;;;;;;;31.13;7.68;;;;;;;7.55;76.30;99205.53;5011188;28;20026;-68
2024/01/25 04:57:55;;;;;;;35.35;8.80;;;;;;;7.57;76.21;99207.00;5016886;28;20092;-68
2024/01/25 05:00:22;;;;;;;33.08;9.65;;;;;;;7.50;76.10;99211.50;5012678;28;20036;-71
2024/01/25 05:02:47;;;;;;;31.85;9.30;;;;;;;7.60;76.02;99216.50;5014652;28;20037;-72
2024/01/25 05:05:13;;;;;;;29.02;8.95;;;;;;;7.52;75.76;99205.94;5019678;28;20032;-69
2024/01/25 05:07:39;;;;;;;30.48;8.63;;;;;;;7.45;75.43;99186.31;5023692;28;20041;-70
2024/01/25 05:10:04;;;;;;;27.25;9.25;;;;;;;7.59;75.06;99209.47;4994707;28;20037;-69
2024/01/25 05:12:30;;;;;;;27.42;8.65;;;;;;;7.56;76.37;99220.63;5020747;28;20026;-69
2024/01/25 05:14:55;;;;;;;26.58;8.05;;;;;;;7.40;75.48;99203.00;5021043;28;20021;-69
2024/01/25 05:17:20;;;;;;;29.60;8.82;;;;;;;7.52;75.14;99230.06;5006725;28;20412;-69
2024/01/25 05:19:46;;;;;;;32.78;9.40;;;;;;;7.54;75.76;99246.75;5035032;28;20037;-68
2024/01/25 05:22:11;;;;;;;29.58;8.65;;;;;;;7.57;76.07;99249.06;5010087;28;20117;-67
2024/01/25 05:24:36;;;;;;;31.42;9.25;;;;;;;7.39;75.86;99222.81;5001201;28;20031;-68
2024/01/25 05:27:02;;;;;;;27.38;9.43;;;;;;;7.44;75.23;99238.28;5024185;28;20044;-69
2024/01/25 05:29:27;;;;;;;30.63;8.73;;;;;;;7.48;76.12;99228.81;5018713;28;20445;-68
2024/01/25 05:31:53;;;;;;;35.83;11.38;;;;;;;7.38;76.08;99231.03;5024296;28;20120;-71
2024/01/25 05:34:18;;;;;;;27.77;9.98;;;;;;;7.48;75.71;99240.38;5015542;28;20029;-71
2024/01/25 05:36:43;;;;;;;32.80;13.75;;;;;;;7.26;76.24;99208.53;5024465;28;20034;-69
2024/01/25 05:39:09;;;;;;;36.97;9.98;;;;;;;7.45;75.99;99242.59;5019355;28;20493;-69
2024/01/25 05:41:34;;;;;;;31.23;8.90;;;;;;;7.37;75.76;99248.97;5013966;28;20128;-69
2024/01/25 05:44:00;;;;;;;29.10;10.40;;;;;;;7.23;76.17;99241.06;5028237;28;20025;-69
2024/01/25 05:46:25;;;;;;;28.88;9.90;;;;;;;7.23;76.74;99230.34;5002682;28;20638;-69
2024/01/25 05:48:51;;;;;;;32.75;9.57;;;;;;;7.24;77.02;99242.69;4994331;28;20034;-69
2024/01/25 05:51:16;;;;;;;31.58;8.85;;;;;;;6.96;76.32;99200.72;5002613;28;20485;-72
2024/01/25 05:53:41;;;;;;;27.50;9.30;;;;;;;7.14;76.60;99236.88;5038711;28;20021;-69
2024/01/25 05:56:07;;;;;;;28.00;8.93;;;;;;;7.17;76.60;99241.81;5016865;28;20497;-69
2024/01/25 05:58:33;;;;;;;32.20;9.80;;;;;;;7.11;76.88;99237.25;5007396;28;20022;-70
2024/01/25 06:00:58;;;;;;;27.17;9.48;;;;;;;7.23;76.68;99262.47;5013162;28;20103;-70
2024/01/25 06:03:23;;;;;;;28.40;10.13;;;;;;;6.96;76.69;99219.47;5037974;28;20041;-71
2024/01/25 06:05:49;;;;;;;32.45;9.63;;;;;;;7.17;76.89;99252.53;5008001;28;20397;-71
2024/01/25 06:08:14;;;;;;;33.10;10.00;;;;;;;7.20;77.23;99253.00;4994465;28;20030;-71
2024/01/25 06:10:40;;;;;;;30.77;10.20;;;;;;;7.15;76.95;99249.22;5024922;28;20044;-71
2024/01/25 06:13:05;;;;;;;29.38;8.60;;;;;;;7.10;77.34;99251.66;5011752;28;20022;-72
2024/01/25 06:15:31;;;;;;;35.83;9.65;;;;;;;7.13;76.98;99245.91;5006401;28;20037;-72
2024/01/25 06:17:57;;;;;;;33.30;9.98;;;;;;;7.02;76.89;99250.00;4993983;28;20514;-70
2024/01/25 06:20:22;;;;;;;29.88;9.63;;;;;;;6.94;77.27;99221.50;5021636;28;20040;-70
2024/01/25 06:22:48;;;;;;;34.70;10.48;;;;;;;7.04;76.99;99263.19;5003785;28;20492;-69
2024/01/25 06:25:13;;;;;;;34.08;10.52;;;;;;;6.96;76.58;99262.31;5021838;28;20132;-71
2024/01/25 06:27:39;;;;;;;30.75;9.35;;;;;;;6.89;77.16;99258.75;5021545;28;20028;-70
2024/01/25 06:30:05;;;;;;;31.25;14.77;;;;;;;6.95;77.54;99271.34;5016530;28;20120;-70
2024/01/25 06:32:30;;;;;;;31.90;11.13;;;;;;;6.89;77.32;99261.44;4994279;28;20024;-70
2024/01/25 06:34:56;;;;;;;29.95;13.25;;;;;;;6.79;77.54;99255.56;5022370;28;20033;-70
2024/01/25 06:37:21;;;;;;;36.58;10.02;;;;;;;6.64;78.08;99241.47;5019848;28;20022;-70
2024/01/25 06:39:47;;;;;;;33.35;9.50;;;;;;;6.78;77.21;99277.19;5030427;28;20042;-70
2024/01/25 06:42:12;;;;;;;36.72;9.70;;;;;;;6.87;78.52;99284.06;5018505;28;20056;-70
2024/01/25 06:44:38;;;;;;;31.35;9.60;;;;;;;6.89;77.30;99293.56;5014601;28;20034;-70
2024/01/25 06:47:03;;;;;;;32.22;9.77;;;;;;;6.78;77.94;99280.69;5007087;28;20041;-72
2024/01/25 06:49:29;;;;;;;31.50;9.80;;;;;;;6.71;77.95;99287.84;5014081;28;20034;-70
2024/01/25 06:51:54;;;;;;;32.42;9.52;;;;;;;6.76;78.28;99304.16;5027339;28;20030;-70
2024/01/25 06:54:19;;;;;;;27.67;8.82;;;;;;;6.74;77.91;99298.19;5021684;28;20116;-71
2024/01/25 06:56:45;;;;;;;36.38;9.90;;;;;;;6.95;78.67;99329.44;5030142;28;20034;-70
2024/01/25 06:59:10;;;;;;;35.67;10.73;;;;;;;6.78;78.63;99312.81;5025587;28;20053;-71
2024/01/25 07:01:36;;;;;;;30.30;9.55;;;;;;;6.96;77.88;99336.44;5014531;28;20540;-72
2024/01/25 07:04:01;;;;;;;37.25;11.77;;;;;;;6.96;78.47;99339.97;5010435;28;20070;-70
2024/01/25 07:06:26;;;;;;;33.10;10.23;;;;;;;6.98;78.42;99345.94;5018789;28;20386;-71
2024/01/25 07:08:53;;;;;;;29.52;10.88;;;;;;;6.92;77.63;99341.38;5019640;28;20033;-70
2024/01/25 07:11:18;;;;;;;33.42;10.48;;;;;;;7.13;77.30;99358.44;5018529;28;20026;-70
2024/01/25 07:13:44;;;;;;;31.25;10.23;;;;;;;7.04;78.48;99360.44;5021587;28;20103;-71
2024/01/25 07:16:09;;;;;;;34.15;10.23;;;;;;;7.05;78.50;99361.25;5019986;28;20028;-70
2024/01/25 07:21:02;;;;;;;35.78;9.63;;;;;;;7.05;76.62;99340.63;5030874;28;20104;-73
2024/01/25 07:23:33;;;;;;;33.70;9.48;;;;;;;7.00;77.32;99339.59;5033827;28;20038;-74
2024/01/25 07:25:58;;;;;;;35.67;10.50;;;;;;;7.18;77.41;99361.34;5012993;28;20065;-73
2024/01/25 07:28:25;;;;;;;31.52;8.65;;;;;;;7.20;77.64;99359.31;5030949;28;20052;-73
2024/01/25 07:30:50;;;;;;;34.97;10.05;;;;;;;7.22;77.03;99355.41;5055964;28;20044;-72
2024/01/25 07:33:15;;;;;;;31.35;10.40;;;;;;;7.10;77.67;99354.28;5048358;28;20074;-73
2024/01/25 07:35:45;;;;;;;36.25;9.98;;;;;;;7.25;76.88;99372.94;5027657;28;20033;-73
2024/01/25 07:38:17;;;;;;;31.25;9.30;;;;;;;7.19;77.27;99357.66;5034428;28;20024;-73
2024/01/25 07:40:42;;;;;;;34.30;10.57;;;;;;;7.28;76.75;99367.22;5035500;28;20049;-73
2024/01/25 07:43:08;;;;;;;32.40;10.23;;;;;;;7.17;77.66;99348.97;5052467;28;20096;-74
2024/01/25 07:45:33;;;;;;;27.13;9.65;;;;;;;7.09;76.81;99346.44;5019299;28;20063;-73
2024/01/25 07:47:59;;;;;;;28.52;9.70;;;;;;;7.17;77.45;99354.31;5044934;28;20025;-72
2024/01/25 07:50:24;;;;;;;30.30;10.48;;;;;;;7.16;77.77;99352.69;5044305;28;20033;-73
2024/01/25 07:52:50;;;;;;;30.95;10.43;;;;;;;7.23;77.74;99358.94;5052180;28;20021;-73
2024/01/25 07:55:15;;;;;;;30.67;11.15;;;;;;;7.14;77.28;99333.31;5049880;28;20120;-73
2024/01/25 07:57:41;;;;;;;30.80;11.00;;;;;;;7.25;77.04;99351.53;5035143;28;20100;-73
2024/01/25 08:00:08;;;;;;;39.10;10.90;;;;;;;7.23;77.00;99353.56;5046155;28;20045;-73
2024/01/25 08:02:34;;;;;;;31.48;10.70;;;;;;;7.08;77.46;99337.59;5033943;28;20488;-73
2024/01/25 08:04:59;;;;;;;40.40;10.95;;;;;;;7.04;76.89;99348.88;5040736;28;20043;-73
2024/01/25 08:07:24;;;;;;;35.85;10.30;;;;;;;7.08;76.89;99350.13;5050477;28;20096;-73
2024/01/25 08:09:52;;;;;;;35.45;10.32;;;;;;;7.07;77.31;99360.00;5043719;28;20033;-73
2024/01/25 08:12:18;;;;;;;31.63;9.85;;;;;;;7.22;76.96;99374.16;5027588;28;20025;-73
2024/01/25 08:14:43;;;;;;;34.17;10.55;;;;;;;7.20;77.45;99370.03;5047337;28;20037;-73
2024/01/25 08:17:09;;;;;;;33.30;9.38;;;;;;;7.31;76.59;99390.91;5047242;28;20033;-72
2024/01/25 08:19:35;;;;;;;31.13;9.48;;;;;;;7.25;76.95;99381.00;5033054;28;20052;-73
2024/01/25 08:22:00;;;;;;;36.65;10.48;;;;;;;7.29;78.02;99393.81;5018343;28;20033;-73
2024/01/25 08:24:25;;;;;;;32.55;9.77;;;;;;;7.27;77.25;99398.53;5029628;28;20042;-73
2024/01/25 08:26:51;;;;;;;32.88;10.13;;;;;;;7.26;77.97;99401.41;5052767;28;20443;-73
2024/01/25 08:29:16;;;;;;;32.67;10.85;;;;;;;7.13;76.72;99379.84;5031689;28;20057;-73
2024/01/25 08:31:41;;;;;;;32.30;10.00;;;;;;;7.19;77.22;99405.88;5051367;28;20029;-73
2024/01/25 08:34:07;;;;;;;38.95;10.70;;;;;;;7.20;77.06;99396.81;5041771;28;20033;-73
2024/01/25 08:36:32;;;;;;;34.80;10.52;;;;;;;7.01;77.50;99378.72;5046790;28;20089;-73
2024/01/25 08:38:57;;;;;;;28.40;9.27;;;;;;;7.06;76.84;99384.31;5046320;28;20056;-73
2024/01/25 08:41:24;;;;;;;34.97;9.90;;;;;;;6.94;77.46;99360.75;5046858;28;20440;-73
2024/01/25 08:43:49;;;;;;;30.45;9.20;;;;;;;7.08;77.39;99382.28;5043576;28;20039;-73
2024/01/25 08:46:15;;;;;;;31.90;9.75;;;;;;;7.18;77.18;99393.50;5050194;28;20025;-73
2024/01/25 08:48:41;;;;;;;30.27;9.80;;;;;;;7.20;77.39;99402.16;5048186;28;20044;-73
2024/01/25 08:51:06;;;;;;;31.70;9.35;;;;;;;7.14;77.31;99392.25;5034418;28;20041;-73
2024/01/25 08:53:31;;;;;;;31.20;9.45;;;;;;;7.18;77.38;99390.81;5032740;28;20037;-73
2024/01/25 08:55:57;;;;;;;29.48;9.57;;;;;;;7.25;77.25;99395.22;5043823;28;20055;-73
2024/01/25 08:58:23;;;;;;;34.20;10.48;;;;;;;7.33;77.27;99407.63;5043455;28;20408;-73
2024/01/25 09:00:48;;;;;;;39.30;10.15;;;;;;;7.29;77.23;99384.94;5051608;28;20028;-73
2024/01/25 09:03:17;;;;;;;29.17;9.65;;;;;;;7.49;76.94;99412.72;5041814;28;20042;-73
2024/01/25 09:05:44;;;;;;;27.67;9.65;;;;;;;7.52;77.19;99402.44;5050446;28;20481;-72
2024/01/25 09:08:12;;;;;;;34.80;10.15;;;;;;;7.52;76.92;99393.56;5035583;28;20030;-72
2024/01/25 09:10:38;;;;;;;34.38;9.95;;;;;;;7.67;76.04;99426.47;5046160;28;20567;-72
2024/01/25 09:13:04;;;;;;;28.25;9.07;;;;;;;7.49;76.30;99385.94;5049863;28;20075;-73
2024/01/25 09:15:29;;;;;;;29.42;8.98;;;;;;;7.73;75.39;99414.09;5046474;28;20020;-73
2024/01/25 09:17:55;;;;;;;33.53;9.18;;;;;;;7.75;75.60;99396.00;5045361;28;20491;-73
2024/01/25 09:20:20;;;;;;;26.15;8.93;;;;;;;7.87;74.96;99397.91;5046290;28;20029;-73
2024/01/25 09:22:45;;;;;;;35.83;10.50;;;;;;;8.03;74.11;99424.41;5039360;28;20029;-73
2024/01/25 09:25:12;;;;;;;25.08;8.18;;;;;;;7.94;74.21;99401.47;5045803;28;20369;-73
2024/01/25 09:27:38;;;;;;;27.60;9.85;;;;;;;8.09;73.55;99398.66;5045630;28;20492;-73
2024/01/25 09:30:05;;;;;;;26.40;9.55;;;;;;;8.15;72.66;99412.09;5050078;28;20021;-73
2024/01/25 09:32:30;;;;;;;29.10;9.65;;;;;;;8.12;72.40;99420.53;5045717;28;20048;-73
2024/01/25 09:34:55;;;;;;;24.55;7.75;;;;;;;8.00;72.08;99429.34;5042993;28;20029;-73
2024/01/25 09:37:23;;;;;;;24.55;8.18;;;;;;;8.01;71.76;99429.16;5042349;28;20118;-73
2024/01/25 09:39:48;;;;;;;23.70;7.97;;;;;;;7.60;72.13;99420.22;5049811;28;20025;-73
2024/01/25 09:42:14;;;;;;;28.60;9.65;;;;;;;7.87;71.84;99422.03;5030187;28;20473;-73
2024/01/25 09:44:40;;;;;;;25.95;8.82;;;;;;;7.88;72.28;99437.13;5048099;28;20047;-73
2024/01/25 09:47:07;;;;;;;29.10;9.20;;;;;;;7.97;71.63;99438.63;5039276;28;20496;-73
2024/01/25 09:49:33;;;;;;;32.88;12.02;;;;;;;8.01;71.18;99461.34;5045971;28;20028;-72
2024/01/25 09:52:03;;;;;;;25.10;8.02;;;;;;;7.94;71.29;99476.56;5044275;28;20032;-73
2024/01/25 09:54:34;;;;;;;29.02;9.43;;;;;;;7.82;71.41;99459.34;5025185;28;20040;-73
2024/01/25 09:56:59;;;;;;;24.63;8.52;;;;;;;7.78;70.99;99436.63;5022034;28;20039;-72
2024/01/25 09:59:24;;;;;;;28.38;9.32;;;;;;;8.09;71.14;99463.88;5039682;28;20025;-74
2024/01/25 10:01:50;;;;;;;24.02;8.07;;;;;;;7.96;70.13;99479.06;5016053;28;20040;-74
2024/01/25 10:04:19;;;;;;;25.13;8.02;;;;;;;7.90;70.94;99475.31;5050106;28;20025;-73
2024/01/25 10:06:44;;;;;;;24.40;7.63;;;;;;;7.92;70.14;99465.19;5038309;28;20036;-73
2024/01/25 10:09:10;;;;;;;24.40;7.40;;;;;;;8.11;70.58;99471.72;5040926;28;20445;-74
2024/01/25 10:11:35;;;;;;;21.83;7.82;;;;;;;8.17;70.69;99462.88;5042985;28;20053;-72
2024/01/25 10:14:01;;;;;;;25.05;8.23;;;;;;;8.10;69.88;99436.00;5048783;28;20020;-73
2024/01/25 10:16:27;;;;;;;24.88;8.00;;;;;;;8.23;70.36;99444.16;5024600;28;20116;-73
2024/01/25 10:18:52;;;;;;;21.58;7.20;;;;;;;7.97;70.57;99406.44;5049292;28;20029;-73
2024/01/25 10:21:18;;;;;;;24.40;6.93;;;;;;;8.10;69.11;99427.97;5017090;28;20033;-73
2024/01/25 10:23:48;;;;;;;28.90;8.10;;;;;;;8.25;69.52;99431.34;5049957;28;20048;-73
2024/01/25 10:26:14;;;;;;;31.73;8.25;;;;;;;8.50;69.35;99422.78;5025394;28;20096;-74
2024/01/25 10:28:39;;;;;;;25.20;8.10;;;;;;;8.63;69.00;99438.97;5044791;28;20037;-73
2024/01/25 10:31:06;;;;;;;20.90;7.90;;;;;;;8.57;69.15;99424.47;5035393;28;20033;-73
2024/01/25 10:33:31;;;;;;;26.55;7.93;;;;;;;8.62;68.95;99426.56;5053630;28;20028;-73
2024/01/25 10:36:03;;;;;;;30.38;7.57;;;;;;;8.63;69.07;99444.34;5044541;28;20120;-73
2024/01/25 10:38:34;;;;;;;22.50;6.82;;;;;;;8.65;69.07;99448.47;5053002;28;20033;-74
2024/01/25 10:41:01;;;;;;;21.60;7.90;;;;;;;8.47;67.29;99417.84;5015426;28;20377;-72
2024/01/25 10:43:27;;;;;;;21.00;7.03;;;;;;;8.40;67.64;99443.84;5037318;28;20112;-73
2024/01/25 10:47:13;;;;;;;24.13;7.28;;;;;;;8.55;67.54;99431.09;5109374;27;20587;-72
2024/01/25 10:49:40;;;;;;;26.80;7.38;;;;;;;8.63;66.99;99428.22;5078154;28;20033;-72
2024/01/25 10:52:06;;;;;;;24.15;7.25;;;;;;;8.54;68.30;99440.19;5101193;28;20028;-72
2024/01/25 10:54:32;;;;;;;23.98;7.60;;;;;;;8.71;68.27;99438.78;5103029;28;20032;-72
2024/01/25 10:56:58;;;;;;;24.67;7.45;;;;;;;8.73;68.32;99434.03;5065544;28;20027;-72
2024/01/25 10:59:25;;;;;;;24.13;7.68;;;;;;;8.58;67.28;99442.25;5099364;28;20078;-72
2024/01/25 11:01:50;;;;;;;22.52;6.97;;;;;;;8.57;66.74;99445.13;5078622;28;20049;-71
2024/01/25 11:04:16;;;;;;;23.60;6.68;;;;;;;8.37;67.44;99430.81;5087903;28;20115;-75
2024/01/25 11:06:44;;;;;;;24.35;7.45;;;;;;;8.41;68.06;99427.53;5094246;28;20474;-74
2024/01/25 11:09:18;;;;;;;21.85;7.05;;;;;;;8.49;67.24;99405.88;5098186;28;20036;-74
2024/01/25 11:11:47;;;;;;;24.05;7.38;;;;;;;8.57;67.02;99437.06;5101385;28;20040;-74
2024/01/25 11:14:14;;;;;;;22.75;6.80;;;;;;;8.65;67.51;99435.06;5081329;28;20032;-73
2024/01/25 11:16:44;;;;;;;25.55;7.45;;;;;;;8.64;67.26;99436.06;5090009;28;20040;-72
2024/01/25 11:19:16;;;;;;;22.83;7.22;;;;;;;8.67;67.55;99440.22;5087544;28;20436;-72
2024/01/25 11:21:42;;;;;;;26.20;9.32;;;;;;;8.65;67.64;99439.59;5087964;28;20043;-74
2024/01/25 11:24:20;;;;;;;25.92;8.18;;;;;;;8.64;67.49;99429.88;5087884;28;20020;-72
2024/01/25 11:26:46;;;;;;;24.48;8.43;;;;;;;8.77;67.25;99429.94;5080167;28;20502;-74
2024/01/25 11:29:20;;;;;;;18.40;6.18;;;;;;;8.50;66.90;99423.63;5087754;28;20036;-75